Time;durP1;ratioP1;P1;durP2;ratioP2;P2;SDS_P1;SDS_P2;PMS_P1;PMS_P2;Temp;Humidity;BMP_temperature;BMP_pressure;BME280_temperature;BME280_humidity;BME280_pressure;Samples;Min_cycle;Max_cycle;Signal;HPM_P1;HPM_P2
2023/08/11 00:00:29;;;;;;;0.00;0.00;;;;;;;;;;1737671;28;20648;-81
2023/08/11 00:01:21;;;;;;;0.00;0.00;;;;;;;;;;1740983;28;20219;-81
2023/08/11 00:02:12;;;;;;;0.00;0.00;;;;;;;;;;1741345;28;20615;-81
2023/08/11 00:03:06;;;;;;;0.00;0.00;;;;;;;;;;1741330;28;20235;-81
2023/08/11 00:03:57;;;;;;;0.00;0.00;;;;;;;;;;1742281;28;20235;-80
2023/08/11 00:04:48;;;;;;;0.00;0.00;;;;;;;;;;1741180;28;20634;-79
2023/08/11 00:05:40;;;;;;;0.00;0.00;;;;;;;;;;1741221;28;20250;-80
2023/08/11 00:06:31;;;;;;;0.00;0.00;;;;;;;;;;1741976;28;20605;-80
2023/08/11 00:07:22;;;;;;;0.00;0.00;;;;;;;;;;1742740;28;20382;-80
2023/08/11 00:08:15;;;;;;;0.00;0.00;;;;;;;;;;1742538;28;20210;-80
2023/08/11 00:09:08;;;;;;;0.00;0.00;;;;;;;;;;1742045;28;20202;-80
2023/08/11 00:10:02;;;;;;;0.00;0.00;;;;;;;;;;1742296;28;20238;-81
2023/08/11 00:10:54;;;;;;;0.00;0.00;;;;;;;;;;1739654;28;20266;-81
2023/08/11 00:11:46;;;;;;;0.00;0.00;;;;;;;;;;1740892;28;20217;-81
2023/08/11 00:12:37;;;;;;;0.00;0.00;;;;;;;;;;1741157;28;20857;-81
2023/08/11 00:13:31;;;;;;;0.00;0.00;;;;;;;;;;1740593;28;20485;-81
2023/08/11 00:14:22;;;;;;;0.00;0.00;;;;;;;;;;1739849;28;20249;-81
2023/08/11 00:15:14;;;;;;;0.00;0.00;;;;;;;;;;1740693;28;20630;-81
2023/08/11 00:16:07;;;;;;;0.00;0.00;;;;;;;;;;1740512;28;20711;-81
2023/08/11 00:16:59;;;;;;;0.00;0.00;;;;;;;;;;1740044;28;20202;-81
2023/08/11 00:17:52;;;;;;;0.00;0.00;;;;;;;;;;1740988;28;20203;-81
2023/08/11 00:18:45;;;;;;;0.00;0.00;;;;;;;;;;1740849;28;20206;-81
2023/08/11 00:19:36;;;;;;;0.00;0.00;;;;;;;;;;1740965;28;20610;-81
2023/08/11 00:20:28;;;;;;;0.00;0.00;;;;;;;;;;1740882;28;20206;-81
2023/08/11 00:21:19;;;;;;;0.00;0.00;;;;;;;;;;1734059;28;20203;-81
2023/08/11 00:22:10;;;;;;;0.00;0.00;;;;;;;;;;1740238;28;20288;-81
2023/08/11 00:23:03;;;;;;;0.00;0.00;;;;;;;;;;1740621;28;20233;-81
2023/08/11 00:23:54;;;;;;;0.00;0.00;;;;;;;;;;1741264;28;20631;-81
2023/08/11 00:24:46;;;;;;;0.00;0.00;;;;;;;;;;1740706;28;20249;-82
2023/08/11 00:25:37;;;;;;;0.00;0.00;;;;;;;;;;1737364;28;20310;-82
2023/08/11 00:26:30;;;;;;;0.00;0.00;;;;;;;;;;1726473;28;20238;-82
2023/08/11 00:27:21;;;;;;;0.00;0.00;;;;;;;;;;1727194;28;20200;-82
2023/08/11 00:28:12;;;;;;;0.00;0.00;;;;;;;;;;1733388;28;20203;-82
2023/08/11 00:29:05;;;;;;;0.00;0.00;;;;;;;;;;1737676;28;20203;-81
2023/08/11 00:29:58;;;;;;;0.00;0.00;;;;;;;;;;1743277;28;20294;-81
2023/08/11 00:30:49;;;;;;;0.00;0.00;;;;;;;;;;1742683;28;20341;-81
2023/08/11 00:31:41;;;;;;;0.00;0.00;;;;;;;;;;1743001;28;20227;-82
2023/08/11 00:32:32;;;;;;;0.00;0.00;;;;;;;;;;1743301;28;20207;-81
2023/08/11 00:33:24;;;;;;;0.00;0.00;;;;;;;;;;1742466;28;20257;-82
2023/08/11 00:34:15;;;;;;;0.00;0.00;;;;;;;;;;1742711;28;20286;-82
2023/08/11 00:35:08;;;;;;;0.00;0.00;;;;;;;;;;1742451;28;20199;-82
2023/08/11 00:35:59;;;;;;;0.00;0.00;;;;;;;;;;1741231;28;20268;-81
2023/08/11 00:36:50;;;;;;;0.00;0.00;;;;;;;;;;1742413;28;21574;-82
2023/08/11 00:37:42;;;;;;;0.00;0.00;;;;;;;;;;1742525;28;20295;-82
2023/08/11 00:38:37;;;;;;;0.00;0.00;;;;;;;;;;1741900;28;20621;-82
2023/08/11 00:39:29;;;;;;;0.00;0.00;;;;;;;;;;1742289;28;20199;-82
2023/08/11 00:40:21;;;;;;;0.00;0.00;;;;;;;;;;1740923;28;20206;-82
2023/08/11 00:41:14;;;;;;;0.00;0.00;;;;;;;;;;1741821;28;20245;-82
2023/08/11 00:42:05;;;;;;;0.00;0.00;;;;;;;;;;1741501;28;20749;-82
2023/08/11 00:42:57;;;;;;;0.00;0.00;;;;;;;;;;1742009;28;20222;-82
2023/08/11 00:43:48;;;;;;;0.00;0.00;;;;;;;;;;1741736;28;20245;-82
2023/08/11 00:44:41;;;;;;;0.00;0.00;;;;;;;;;;1741915;28;20690;-82
2023/08/11 00:45:33;;;;;;;0.00;0.00;;;;;;;;;;1736645;28;20683;-82
2023/08/11 00:46:24;;;;;;;0.00;0.00;;;;;;;;;;1742086;28;20391;-81
2023/08/11 00:47:15;;;;;;;0.00;0.00;;;;;;;;;;1741732;28;20348;-81
2023/08/11 00:48:08;;;;;;;0.00;0.00;;;;;;;;;;1741667;28;20202;-81
2023/08/11 00:48:59;;;;;;;0.00;0.00;;;;;;;;;;1743383;28;20264;-81
2023/08/11 00:49:50;;;;;;;0.00;0.00;;;;;;;;;;1741396;28;20206;-81
2023/08/11 00:50:42;;;;;;;0.00;0.00;;;;;;;;;;1743249;28;20230;-82
2023/08/11 00:51:33;;;;;;;0.00;0.00;;;;;;;;;;1745516;28;20203;-82
2023/08/11 00:52:26;;;;;;;0.00;0.00;;;;;;;;;;1745298;28;20313;-81
2023/08/11 00:53:17;;;;;;;0.00;0.00;;;;;;;;;;1745872;28;20210;-81
2023/08/11 00:54:10;;;;;;;0.00;0.00;;;;;;;;;;1743140;28;20613;-81
2023/08/11 00:55:02;;;;;;;0.00;0.00;;;;;;;;;;1744477;28;20228;-81
2023/08/11 00:55:53;;;;;;;0.00;0.00;;;;;;;;;;1743473;28;20234;-81
2023/08/11 00:56:47;;;;;;;0.00;0.00;;;;;;;;;;1745212;28;20202;-81
2023/08/11 00:57:38;;;;;;;0.00;0.00;;;;;;;;;;1744970;28;20519;-81
2023/08/11 00:58:30;;;;;;;0.00;0.00;;;;;;;;;;1745268;28;20666;-81
2023/08/11 00:59:23;;;;;;;0.00;0.00;;;;;;;;;;1740001;28;20204;-81
2023/08/11 01:00:16;;;;;;;0.00;0.00;;;;;;;;;;1742890;28;20265;-81
2023/08/11 01:01:09;;;;;;;0.00;0.00;;;;;;;;;;1734603;28;20261;-81
2023/08/11 01:02:00;;;;;;;0.00;0.00;;;;;;;;;;1744422;28;20637;-81
2023/08/11 01:02:52;;;;;;;0.00;0.00;;;;;;;;;;1744787;28;20209;-81
2023/08/11 01:03:47;;;;;;;0.00;0.00;;;;;;;;;;1744635;28;20233;-81
2023/08/11 01:04:39;;;;;;;0.00;0.00;;;;;;;;;;1744629;28;20209;-81
2023/08/11 01:05:33;;;;;;;0.00;0.00;;;;;;;;;;1743377;28;20229;-81
2023/08/11 01:06:28;;;;;;;0.00;0.00;;;;;;;;;;1738462;28;20495;-81
2023/08/11 01:07:22;;;;;;;0.00;0.00;;;;;;;;;;1744769;28;20300;-81
2023/08/11 01:08:19;;;;;;;0.00;0.00;;;;;;;;;;1744256;28;20215;-81
2023/08/11 01:09:14;;;;;;;0.00;0.00;;;;;;;;;;1742570;28;20243;-80
2023/08/11 01:10:13;;;;;;;0.00;0.00;;;;;;;;;;1744051;28;20276;-80
2023/08/11 01:11:08;;;;;;;0.00;0.00;;;;;;;;;;1743364;28;20226;-81
2023/08/11 01:12:05;;;;;;;0.00;0.00;;;;;;;;;;1744363;28;20285;-80
2023/08/11 01:13:03;;;;;;;0.00;0.00;;;;;;;;;;1743941;28;20198;-80
2023/08/11 01:13:59;;;;;;;0.00;0.00;;;;;;;;;;1744222;28;20211;-80
2023/08/11 01:14:55;;;;;;;0.00;0.00;;;;;;;;;;1742997;28;20214;-80
2023/08/11 01:15:49;;;;;;;0.00;0.00;;;;;;;;;;1739218;28;20687;-81
2023/08/11 01:16:41;;;;;;;0.00;0.00;;;;;;;;;;1739888;28;20230;-81
2023/08/11 01:17:33;;;;;;;0.00;0.00;;;;;;;;;;1740571;28;20244;-81
2023/08/11 01:18:25;;;;;;;0.00;0.00;;;;;;;;;;1736982;28;20226;-81
2023/08/11 01:19:22;;;;;;;0.00;0.00;;;;;;;;;;1735902;28;20200;-81
2023/08/11 01:20:16;;;;;;;0.00;0.00;;;;;;;;;;1738982;28;20206;-80
2023/08/11 01:21:11;;;;;;;0.00;0.00;;;;;;;;;;1739924;28;20298;-80
2023/08/11 01:22:04;;;;;;;0.00;0.00;;;;;;;;;;1739712;28;20210;-78
2023/08/11 01:22:57;;;;;;;0.00;0.00;;;;;;;;;;1740038;28;20203;-79
2023/08/11 01:23:50;;;;;;;0.00;0.00;;;;;;;;;;1740743;28;20195;-79
2023/08/11 01:24:41;;;;;;;0.00;0.00;;;;;;;;;;1740229;28;20238;-79
2023/08/11 01:25:34;;;;;;;0.00;0.00;;;;;;;;;;1739216;28;20727;-79
2023/08/11 01:26:25;;;;;;;0.00;0.00;;;;;;;;;;1728869;28;20295;-79
2023/08/11 01:27:17;;;;;;;0.00;0.00;;;;;;;;;;1740735;28;20199;-79
2023/08/11 01:28:08;;;;;;;0.00;0.00;;;;;;;;;;1741765;28;20213;-79
2023/08/11 01:29:01;;;;;;;0.00;0.00;;;;;;;;;;1743138;28;20210;-79
2023/08/11 01:29:52;;;;;;;0.00;0.00;;;;;;;;;;1742762;28;20229;-79
2023/08/11 01:30:43;;;;;;;0.00;0.00;;;;;;;;;;1742210;28;20241;-79
2023/08/11 01:31:35;;;;;;;0.00;0.00;;;;;;;;;;1742601;28;20525;-79
2023/08/11 01:32:26;;;;;;;0.00;0.00;;;;;;;;;;1742459;28;20202;-79
2023/08/11 01:33:17;;;;;;;0.00;0.00;;;;;;;;;;1743744;28;20517;-79
2023/08/11 01:34:09;;;;;;;0.00;0.00;;;;;;;;;;1740065;28;20199;-79
2023/08/11 01:35:03;;;;;;;0.00;0.00;;;;;;;;;;1743173;28;20210;-79
2023/08/11 01:35:56;;;;;;;0.00;0.00;;;;;;;;;;1738781;28;20262;-80
2023/08/11 01:36:47;;;;;;;0.10;0.10;;;;;;;;;;1739512;28;20345;-80
2023/08/11 01:37:38;;;;;;;0.00;0.00;;;;;;;;;;1739749;28;20227;-80
2023/08/11 01:38:30;;;;;;;0.00;0.00;;;;;;;;;;1737839;28;20572;-80
2023/08/11 01:39:22;;;;;;;0.00;0.00;;;;;;;;;;1739861;28;20659;-80
2023/08/11 01:40:14;;;;;;;0.00;0.00;;;;;;;;;;1741117;28;20623;-81
2023/08/11 01:41:07;;;;;;;0.00;0.00;;;;;;;;;;1740865;28;20226;-81
2023/08/11 01:41:58;;;;;;;0.00;0.00;;;;;;;;;;1743873;28;20214;-81
2023/08/11 01:42:50;;;;;;;0.00;0.00;;;;;;;;;;1743726;28;20202;-80
2023/08/11 01:43:43;;;;;;;0.00;0.00;;;;;;;;;;1743048;28;20197;-80
2023/08/11 01:44:34;;;;;;;0.00;0.00;;;;;;;;;;1743359;28;20211;-80
2023/08/11 01:45:27;;;;;;;0.00;0.00;;;;;;;;;;1741192;28;20727;-80
2023/08/11 01:46:19;;;;;;;0.00;0.00;;;;;;;;;;1740164;28;20286;-80
2023/08/11 01:47:10;;;;;;;0.00;0.00;;;;;;;;;;1739347;28;20233;-80
2023/08/11 01:48:02;;;;;;;0.00;0.00;;;;;;;;;;1740317;28;20633;-80
2023/08/11 01:48:54;;;;;;;0.00;0.00;;;;;;;;;;1739441;28;20624;-81
2023/08/11 01:49:46;;;;;;;0.00;0.00;;;;;;;;;;1740186;28;20238;-81
2023/08/11 01:50:39;;;;;;;0.00;0.00;;;;;;;;;;1736822;28;20843;-80
2023/08/11 01:51:30;;;;;;;0.00;0.00;;;;;;;;;;1739819;28;20217;-80
2023/08/11 01:52:22;;;;;;;0.00;0.00;;;;;;;;;;1739608;28;20244;-81
2023/08/11 01:53:14;;;;;;;0.00;0.00;;;;;;;;;;1739475;28;20214;-80
2023/08/11 01:54:05;;;;;;;0.00;0.00;;;;;;;;;;1739912;28;20238;-80
2023/08/11 01:54:58;;;;;;;0.00;0.00;;;;;;;;;;1739664;28;20893;-79
2023/08/11 01:55:51;;;;;;;0.00;0.00;;;;;;;;;;1736943;28;20250;-79
2023/08/11 01:56:44;;;;;;;0.00;0.00;;;;;;;;;;1742058;28;20346;-79
2023/08/11 01:57:36;;;;;;;0.00;0.00;;;;;;;;;;1741862;28;20199;-79
2023/08/11 01:58:28;;;;;;;0.03;0.03;;;;;;;;;;1738211;28;20645;-79
2023/08/11 01:59:19;;;;;;;0.00;0.00;;;;;;;;;;1736474;28;20238;-79
2023/08/11 02:00:13;;;;;;;0.00;0.00;;;;;;;;;;1738593;28;20233;-79
2023/08/11 02:01:05;;;;;;;0.00;0.00;;;;;;;;;;1721558;28;20603;-79
2023/08/11 02:01:57;;;;;;;0.00;0.00;;;;;;;;;;1732440;28;20211;-79
2023/08/11 02:02:48;;;;;;;0.00;0.00;;;;;;;;;;1737545;28;20314;-79
2023/08/11 02:03:40;;;;;;;0.00;0.00;;;;;;;;;;1740264;28;20229;-79
2023/08/11 02:04:32;;;;;;;0.00;0.00;;;;;;;;;;1739586;28;20276;-79
2023/08/11 02:05:24;;;;;;;0.00;0.00;;;;;;;;;;1738854;28;20693;-79
2023/08/11 02:06:16;;;;;;;0.00;0.00;;;;;;;;;;1739462;28;20639;-79
2023/08/11 02:07:07;;;;;;;0.00;0.00;;;;;;;;;;1742179;28;20210;-82
2023/08/11 02:07:59;;;;;;;0.00;0.00;;;;;;;;;;1742765;28;20207;-81
2023/08/11 02:08:51;;;;;;;0.00;0.00;;;;;;;;;;1742725;28;20548;-81
2023/08/11 02:09:42;;;;;;;0.00;0.00;;;;;;;;;;1743407;28;20230;-81
2023/08/11 02:10:35;;;;;;;0.00;0.00;;;;;;;;;;1741286;28;20567;-80
2023/08/11 02:11:27;;;;;;;0.00;0.00;;;;;;;;;;1739828;28;20340;-81
2023/08/11 02:12:18;;;;;;;0.00;0.00;;;;;;;;;;1739500;28;20233;-80
2023/08/11 02:13:09;;;;;;;0.00;0.00;;;;;;;;;;1739597;28;20222;-81
2023/08/11 02:14:01;;;;;;;0.00;0.00;;;;;;;;;;1740400;28;20325;-81
2023/08/11 02:14:52;;;;;;;0.00;0.00;;;;;;;;;;1740203;28;20626;-81
2023/08/11 02:15:43;;;;;;;0.00;0.00;;;;;;;;;;1735653;28;20234;-80
2023/08/11 02:16:37;;;;;;;0.00;0.00;;;;;;;;;;1739732;28;20206;-80
2023/08/11 02:17:28;;;;;;;0.00;0.00;;;;;;;;;;1739982;28;20402;-80
2023/08/11 02:18:20;;;;;;;0.00;0.00;;;;;;;;;;1739457;28;20210;-80
2023/08/11 02:19:11;;;;;;;0.00;0.00;;;;;;;;;;1739970;28;20265;-81
2023/08/11 02:20:13;;;;;;;0.00;0.00;;;;;;;;;;1740566;28;20670;-81
2023/08/11 02:21:06;;;;;;;0.00;0.00;;;;;;;;;;1741649;28;20227;-81
2023/08/11 02:21:57;;;;;;;0.00;0.00;;;;;;;;;;1746114;28;20683;-81
2023/08/11 02:22:49;;;;;;;0.00;0.00;;;;;;;;;;1743822;28;20545;-81
2023/08/11 02:23:41;;;;;;;0.00;0.00;;;;;;;;;;1746439;28;20711;-81
2023/08/11 02:24:32;;;;;;;0.00;0.00;;;;;;;;;;1743660;28;20329;-81
2023/08/11 02:25:25;;;;;;;0.00;0.00;;;;;;;;;;1740576;28;20653;-82
2023/08/11 02:26:18;;;;;;;0.00;0.00;;;;;;;;;;1738174;28;20190;-82
2023/08/11 02:27:10;;;;;;;0.00;0.00;;;;;;;;;;1740880;28;20632;-82
2023/08/11 02:28:02;;;;;;;0.00;0.00;;;;;;;;;;1740182;28;20290;-82
2023/08/11 02:28:53;;;;;;;0.00;0.00;;;;;;;;;;1740343;28;20226;-82
2023/08/11 02:29:45;;;;;;;0.00;0.00;;;;;;;;;;1740255;28;20264;-82
2023/08/11 02:30:36;;;;;;;0.00;0.00;;;;;;;;;;1741246;28;20540;-82
2023/08/11 02:31:28;;;;;;;0.00;0.00;;;;;;;;;;1743449;28;20252;-81
2023/08/11 02:32:19;;;;;;;0.00;0.00;;;;;;;;;;1743886;28;20233;-81
2023/08/11 02:33:11;;;;;;;0.00;0.00;;;;;;;;;;1742564;28;20222;-81
2023/08/11 02:34:03;;;;;;;0.00;0.00;;;;;;;;;;1743099;28;20210;-81
2023/08/11 02:34:55;;;;;;;0.00;0.00;;;;;;;;;;1743168;28;20214;-81
2023/08/11 02:35:47;;;;;;;0.00;0.00;;;;;;;;;;1742421;28;20230;-81
2023/08/11 02:36:38;;;;;;;0.00;0.00;;;;;;;;;;1742889;28;20245;-80
2023/08/11 02:37:29;;;;;;;0.00;0.00;;;;;;;;;;1742518;28;20210;-80
2023/08/11 02:38:21;;;;;;;0.00;0.00;;;;;;;;;;1743659;28;20195;-80
2023/08/11 02:39:12;;;;;;;0.00;0.00;;;;;;;;;;1739817;28;20707;-80
2023/08/11 02:40:08;;;;;;;0.00;0.00;;;;;;;;;;1742333;28;20547;-80
2023/08/11 02:41:00;;;;;;;0.00;0.00;;;;;;;;;;1741158;28;20703;-80
2023/08/11 02:41:52;;;;;;;0.00;0.00;;;;;;;;;;1742848;28;20242;-80
2023/08/11 02:42:44;;;;;;;0.00;0.00;;;;;;;;;;1742622;28;20213;-80
2023/08/11 02:43:36;;;;;;;0.00;0.00;;;;;;;;;;1741614;28;20277;-80
2023/08/11 02:44:27;;;;;;;0.00;0.00;;;;;;;;;;1742732;28;20298;-80
2023/08/11 02:45:19;;;;;;;0.10;0.10;;;;;;;;;;1739902;28;20219;-80
2023/08/11 02:46:11;;;;;;;0.00;0.00;;;;;;;;;;1737798;28;20206;-80
2023/08/11 02:47:02;;;;;;;0.00;0.00;;;;;;;;;;1738999;28;20305;-81
2023/08/11 02:47:54;;;;;;;0.00;0.00;;;;;;;;;;1739838;28;20538;-81
2023/08/11 02:48:46;;;;;;;0.00;0.00;;;;;;;;;;1743407;28;20202;-81
2023/08/11 02:49:37;;;;;;;0.00;0.00;;;;;;;;;;1739879;28;20349;-81
2023/08/11 02:50:29;;;;;;;0.00;0.00;;;;;;;;;;1740404;28;20230;-80
2023/08/11 02:51:20;;;;;;;0.00;0.00;;;;;;;;;;1738180;28;20246;-80
2023/08/11 02:52:11;;;;;;;0.00;0.00;;;;;;;;;;1734745;28;20227;-80
2023/08/11 02:53:04;;;;;;;0.00;0.00;;;;;;;;;;1732964;28;20629;-80
2023/08/11 02:53:55;;;;;;;0.00;0.00;;;;;;;;;;1735786;28;20636;-80
2023/08/11 02:54:46;;;;;;;0.00;0.00;;;;;;;;;;1733472;28;20282;-80
2023/08/11 02:55:38;;;;;;;0.00;0.00;;;;;;;;;;1733014;28;20279;-80
2023/08/11 02:56:29;;;;;;;0.00;0.00;;;;;;;;;;1733419;28;20231;-80
2023/08/11 02:57:23;;;;;;;0.00;0.00;;;;;;;;;;1735407;28;20295;-80
2023/08/11 02:58:14;;;;;;;0.00;0.00;;;;;;;;;;1735208;28;20207;-80
2023/08/11 02:59:06;;;;;;;0.00;0.00;;;;;;;;;;1735732;28;20232;-80
2023/08/11 02:59:57;;;;;;;0.00;0.00;;;;;;;;;;1734258;28;20235;-80
2023/08/11 03:00:49;;;;;;;0.00;0.00;;;;;;;;;;1734198;28;20737;-80
2023/08/11 03:01:41;;;;;;;0.00;0.00;;;;;;;;;;1734719;28;20191;-80
2023/08/11 03:02:32;;;;;;;0.00;0.00;;;;;;;;;;1731510;28;20722;-80
2023/08/11 03:03:25;;;;;;;0.00;0.00;;;;;;;;;;1733057;28;20220;-80
2023/08/11 03:04:16;;;;;;;0.00;0.00;;;;;;;;;;1733857;28;20211;-80
2023/08/11 03:05:09;;;;;;;0.00;0.00;;;;;;;;;;1734717;28;20250;-80
2023/08/11 03:06:01;;;;;;;0.00;0.00;;;;;;;;;;1731485;28;20231;-80
2023/08/11 03:06:52;;;;;;;0.00;0.00;;;;;;;;;;1731546;28;20208;-80
2023/08/11 03:07:44;;;;;;;0.00;0.00;;;;;;;;;;1727528;28;20208;-80
2023/08/11 03:08:36;;;;;;;0.00;0.00;;;;;;;;;;1734945;28;20216;-80
2023/08/11 03:09:27;;;;;;;0.00;0.00;;;;;;;;;;1733345;28;20529;-81
2023/08/11 03:10:19;;;;;;;0.00;0.00;;;;;;;;;;1732240;28;20244;-80
2023/08/11 03:11:10;;;;;;;0.00;0.00;;;;;;;;;;1733732;28;20250;-80
2023/08/11 03:12:01;;;;;;;0.00;0.00;;;;;;;;;;1733511;28;20312;-81
2023/08/11 03:12:54;;;;;;;0.00;0.00;;;;;;;;;;1733607;28;20200;-80
2023/08/11 03:13:46;;;;;;;0.00;0.00;;;;;;;;;;1732750;28;20262;-79
2023/08/11 03:14:38;;;;;;;0.00;0.00;;;;;;;;;;1734107;28;20621;-81
2023/08/11 03:15:29;;;;;;;0.00;0.00;;;;;;;;;;1733412;28;20235;-80
2023/08/11 03:16:21;;;;;;;0.00;0.00;;;;;;;;;;1738511;28;20294;-80
2023/08/11 03:17:13;;;;;;;0.00;0.00;;;;;;;;;;1735861;28;20223;-80
2023/08/11 03:18:04;;;;;;;0.00;0.00;;;;;;;;;;1736614;28;20263;-80
2023/08/11 03:18:56;;;;;;;0.00;0.00;;;;;;;;;;1736479;28;20203;-80
2023/08/11 03:19:47;;;;;;;0.00;0.00;;;;;;;;;;1736381;28;20329;-80
2023/08/11 03:20:40;;;;;;;0.00;0.00;;;;;;;;;;1734063;28;20230;-80
2023/08/11 03:21:32;;;;;;;0.00;0.00;;;;;;;;;;1733181;28;20298;-79
2023/08/11 03:22:23;;;;;;;0.00;0.00;;;;;;;;;;1733563;28;20299;-79
2023/08/11 03:23:15;;;;;;;0.00;0.00;;;;;;;;;;1733600;28;20203;-79
2023/08/11 03:24:07;;;;;;;0.00;0.00;;;;;;;;;;1734236;28;20235;-79
2023/08/11 03:24:58;;;;;;;0.00;0.00;;;;;;;;;;1733209;28;20234;-79
2023/08/11 03:25:50;;;;;;;0.00;0.00;;;;;;;;;;1735700;28;20246;-79
2023/08/11 03:26:41;;;;;;;0.00;0.00;;;;;;;;;;1736771;28;20203;-79
2023/08/11 03:27:33;;;;;;;0.00;0.00;;;;;;;;;;1736576;28;20238;-79
2023/08/11 03:28:26;;;;;;;0.00;0.00;;;;;;;;;;1738060;28;20347;-78
2023/08/11 03:29:17;;;;;;;0.00;0.00;;;;;;;;;;1738976;28;20203;-79
2023/08/11 03:30:10;;;;;;;0.00;0.00;;;;;;;;;;1736748;28;20218;-79
2023/08/11 03:31:02;;;;;;;0.00;0.00;;;;;;;;;;1732159;28;20246;-79
2023/08/11 03:31:53;;;;;;;0.00;0.00;;;;;;;;;;1734313;28;20207;-79
2023/08/11 03:32:46;;;;;;;0.00;0.00;;;;;;;;;;1733683;28;20219;-79
2023/08/11 03:33:37;;;;;;;0.00;0.00;;;;;;;;;;1734399;28;20206;-79
2023/08/11 03:34:29;;;;;;;0.00;0.00;;;;;;;;;;1733907;28;20677;-79
2023/08/11 03:35:20;;;;;;;0.00;0.00;;;;;;;;;;1733078;28;20312;-79
2023/08/11 03:36:11;;;;;;;0.00;0.00;;;;;;;;;;1736638;28;20215;-79
2023/08/11 03:37:03;;;;;;;0.00;0.00;;;;;;;;;;1737158;28;20203;-79
2023/08/11 03:37:54;;;;;;;0.00;0.00;;;;;;;;;;1736809;28;20204;-79
2023/08/11 03:38:46;;;;;;;0.00;0.00;;;;;;;;;;1739684;28;20231;-79
2023/08/11 03:39:37;;;;;;;0.00;0.00;;;;;;;;;;1743711;28;20227;-79
2023/08/11 03:40:30;;;;;;;0.00;0.00;;;;;;;;;;1737017;28;20230;-79
2023/08/11 03:41:21;;;;;;;0.00;0.00;;;;;;;;;;1729788;28;20196;-79
2023/08/11 03:42:12;;;;;;;0.00;0.00;;;;;;;;;;1730988;28;20270;-79
2023/08/11 03:43:04;;;;;;;0.00;0.00;;;;;;;;;;1734640;28;20548;-79
2023/08/11 03:43:57;;;;;;;0.00;0.00;;;;;;;;;;1737065;28;20222;-79
2023/08/11 03:44:48;;;;;;;0.00;0.00;;;;;;;;;;1737156;28;20203;-79
2023/08/11 03:45:40;;;;;;;0.00;0.00;;;;;;;;;;1736844;28;20623;-79
2023/08/11 03:46:31;;;;;;;0.00;0.00;;;;;;;;;;1737060;28;20204;-79
2023/08/11 03:47:23;;;;;;;0.00;0.00;;;;;;;;;;1737316;28;20204;-79
2023/08/11 03:48:14;;;;;;;0.00;0.00;;;;;;;;;;1735917;28;20234;-79
2023/08/11 03:49:06;;;;;;;0.00;0.00;;;;;;;;;;1741118;28;20208;-79
2023/08/11 03:49:58;;;;;;;0.00;0.00;;;;;;;;;;1735994;28;20203;-78
2023/08/11 03:50:49;;;;;;;0.00;0.00;;;;;;;;;;1729514;28;20266;-79
2023/08/11 03:51:41;;;;;;;0.00;0.00;;;;;;;;;;1734582;28;20238;-79
2023/08/11 03:52:32;;;;;;;0.00;0.00;;;;;;;;;;1737057;28;20203;-79
2023/08/11 03:53:23;;;;;;;0.00;0.00;;;;;;;;;;1733836;28;20207;-79
2023/08/11 03:54:15;;;;;;;0.00;0.00;;;;;;;;;;1733999;28;20265;-79
2023/08/11 03:55:09;;;;;;;0.00;0.00;;;;;;;;;;1735203;28;20204;-79
2023/08/11 03:56:00;;;;;;;0.00;0.00;;;;;;;;;;1732790;28;20301;-78
2023/08/11 03:56:52;;;;;;;0.00;0.00;;;;;;;;;;1731897;28;20548;-78
2023/08/11 03:57:45;;;;;;;0.00;0.00;;;;;;;;;;1734271;28;20272;-78
2023/08/11 03:58:36;;;;;;;0.00;0.00;;;;;;;;;;1732894;28;20262;-79
2023/08/11 03:59:30;;;;;;;0.00;0.00;;;;;;;;;;1729260;28;20254;-79
2023/08/11 04:00:21;;;;;;;0.00;0.00;;;;;;;;;;1732389;28;20206;-79
2023/08/11 04:01:14;;;;;;;0.00;0.00;;;;;;;;;;1736762;28;20210;-79
2023/08/11 04:02:05;;;;;;;0.00;0.00;;;;;;;;;;1736867;28;20545;-79
2023/08/11 04:02:56;;;;;;;0.00;0.00;;;;;;;;;;1742140;28;20259;-78
2023/08/11 04:03:48;;;;;;;0.00;0.00;;;;;;;;;;1736781;28;20290;-78
2023/08/11 04:04:39;;;;;;;0.00;0.00;;;;;;;;;;1737067;28;20214;-78
2023/08/11 04:05:30;;;;;;;0.00;0.00;;;;;;;;;;1737446;28;20234;-78
2023/08/11 04:06:22;;;;;;;0.00;0.00;;;;;;;;;;1736266;28;20617;-78
2023/08/11 04:07:14;;;;;;;0.00;0.00;;;;;;;;;;1733636;28;20211;-78
2023/08/11 04:08:06;;;;;;;0.00;0.00;;;;;;;;;;1734161;28;20207;-78
2023/08/11 04:08:57;;;;;;;0.00;0.00;;;;;;;;;;1733237;28;20892;-79
2023/08/11 04:09:48;;;;;;;0.00;0.00;;;;;;;;;;1733785;28;20264;-78
2023/08/11 04:10:40;;;;;;;0.00;0.00;;;;;;;;;;1738230;28;20546;-78
2023/08/11 04:11:32;;;;;;;0.00;0.00;;;;;;;;;;1730945;28;20665;-78
2023/08/11 04:12:23;;;;;;;0.00;0.00;;;;;;;;;;1733354;28;20226;-78
2023/08/11 04:13:15;;;;;;;0.00;0.00;;;;;;;;;;1733135;28;20218;-78
2023/08/11 04:14:07;;;;;;;0.00;0.00;;;;;;;;;;1737670;28;20234;-78
2023/08/11 04:14:59;;;;;;;0.00;0.00;;;;;;;;;;1733248;28;20219;-78
2023/08/11 04:15:52;;;;;;;0.00;0.00;;;;;;;;;;1731840;28;20247;-78
2023/08/11 04:16:43;;;;;;;0.00;0.00;;;;;;;;;;1736704;28;20227;-78
2023/08/11 04:17:36;;;;;;;0.00;0.00;;;;;;;;;;1735640;28;20473;-78
2023/08/11 04:18:28;;;;;;;0.00;0.00;;;;;;;;;;1734494;28;20236;-78
2023/08/11 04:19:19;;;;;;;0.00;0.00;;;;;;;;;;1732267;28;20232;-78
2023/08/11 04:20:12;;;;;;;0.03;0.03;;;;;;;;;;1730934;28;20223;-78
2023/08/11 04:21:05;;;;;;;0.00;0.00;;;;;;;;;;1732596;28;20240;-78
2023/08/11 04:21:56;;;;;;;0.00;0.00;;;;;;;;;;1732228;28;20553;-78
2023/08/11 04:22:47;;;;;;;0.00;0.00;;;;;;;;;;1733674;28;20200;-78
2023/08/11 04:23:40;;;;;;;0.00;0.00;;;;;;;;;;1732899;28;20289;-78
2023/08/11 04:24:31;;;;;;;0.00;0.00;;;;;;;;;;1733580;28;20704;-78
2023/08/11 04:25:22;;;;;;;0.00;0.00;;;;;;;;;;1732899;28;20220;-78
2023/08/11 04:26:14;;;;;;;0.00;0.00;;;;;;;;;;1737899;28;20693;-78
2023/08/11 04:27:05;;;;;;;0.00;0.00;;;;;;;;;;1734678;28;20223;-78
2023/08/11 04:27:59;;;;;;;0.00;0.00;;;;;;;;;;1735536;28;20231;-78
2023/08/11 04:28:51;;;;;;;0.00;0.00;;;;;;;;;;1736010;28;20553;-78
2023/08/11 04:29:43;;;;;;;0.00;0.00;;;;;;;;;;1736230;28;20204;-78
2023/08/11 04:30:35;;;;;;;0.00;0.00;;;;;;;;;;1735301;28;20258;-78
2023/08/11 04:31:27;;;;;;;0.00;0.00;;;;;;;;;;1735775;28;20208;-78
2023/08/11 04:32:18;;;;;;;0.00;0.00;;;;;;;;;;1736505;28;20270;-78
2023/08/11 04:33:12;;;;;;;0.00;0.00;;;;;;;;;;1736110;28;20202;-80
2023/08/11 04:34:05;;;;;;;0.00;0.00;;;;;;;;;;1735822;28;20522;-79
2023/08/11 04:34:57;;;;;;;0.00;0.00;;;;;;;;;;1736024;28;20214;-79
2023/08/11 04:35:49;;;;;;;0.00;0.00;;;;;;;;;;1732911;28;20290;-78
2023/08/11 04:36:40;;;;;;;0.00;0.00;;;;;;;;;;1732324;28;20235;-79
2023/08/11 04:37:33;;;;;;;0.00;0.00;;;;;;;;;;1734353;28;20281;-79
2023/08/11 04:38:24;;;;;;;0.00;0.00;;;;;;;;;;1732765;28;20298;-79
2023/08/11 04:39:16;;;;;;;0.00;0.00;;;;;;;;;;1736619;28;20485;-79
2023/08/11 04:40:10;;;;;;;0.00;0.00;;;;;;;;;;1733506;28;20683;-79
2023/08/11 04:41:02;;;;;;;0.00;0.00;;;;;;;;;;1737001;28;20235;-79
2023/08/11 04:41:53;;;;;;;0.00;0.00;;;;;;;;;;1733479;28;20602;-79
2023/08/11 04:42:45;;;;;;;0.00;0.00;;;;;;;;;;1733183;28;20294;-79
2023/08/11 04:43:37;;;;;;;0.00;0.00;;;;;;;;;;1733265;28;20637;-79
2023/08/11 04:44:28;;;;;;;0.00;0.00;;;;;;;;;;1732987;28;20299;-79
2023/08/11 04:45:20;;;;;;;0.00;0.00;;;;;;;;;;1730799;28;20564;-79
2023/08/11 04:46:12;;;;;;;0.00;0.00;;;;;;;;;;1734878;28;20228;-78
2023/08/11 04:47:03;;;;;;;0.00;0.00;;;;;;;;;;1738113;28;20274;-78
2023/08/11 04:47:55;;;;;;;0.00;0.00;;;;;;;;;;1735304;28;20203;-78
2023/08/11 04:48:46;;;;;;;0.00;0.00;;;;;;;;;;1735861;28;20246;-78
2023/08/11 04:49:38;;;;;;;0.00;0.00;;;;;;;;;;1735515;28;20586;-78
2023/08/11 04:50:30;;;;;;;0.00;0.00;;;;;;;;;;1735898;28;20533;-78
2023/08/11 04:51:22;;;;;;;0.00;0.00;;;;;;;;;;1729025;28;20656;-80
2023/08/11 04:52:13;;;;;;;0.00;0.00;;;;;;;;;;1725928;28;20327;-79
2023/08/11 04:53:05;;;;;;;0.00;0.00;;;;;;;;;;1726139;28;20602;-80
2023/08/11 04:54:00;;;;;;;0.00;0.00;;;;;;;;;;1730042;28;20244;-79
2023/08/11 04:54:52;;;;;;;0.00;0.00;;;;;;;;;;1733290;28;20251;-79
2023/08/11 04:55:43;;;;;;;0.00;0.00;;;;;;;;;;1735260;28;20246;-79
2023/08/11 04:56:35;;;;;;;0.00;0.00;;;;;;;;;;1735675;28;20195;-79
2023/08/11 04:57:26;;;;;;;0.00;0.00;;;;;;;;;;1735817;28;20214;-79
2023/08/11 04:58:20;;;;;;;0.00;0.00;;;;;;;;;;1734576;28;20299;-79
2023/08/11 04:59:12;;;;;;;0.00;0.00;;;;;;;;;;1733205;28;20235;-79
2023/08/11 05:00:06;;;;;;;0.00;0.00;;;;;;;;;;1735208;28;20199;-79
2023/08/11 05:00:58;;;;;;;0.00;0.00;;;;;;;;;;1729212;28;20232;-79
2023/08/11 05:01:51;;;;;;;0.00;0.00;;;;;;;;;;1733512;28;20227;-79
2023/08/11 05:02:42;;;;;;;0.00;0.00;;;;;;;;;;1731398;28;20648;-79
2023/08/11 05:03:34;;;;;;;0.00;0.00;;;;;;;;;;1733884;28;20291;-79
2023/08/11 05:04:25;;;;;;;0.00;0.00;;;;;;;;;;1732884;28;20295;-80
2023/08/11 05:05:17;;;;;;;0.00;0.00;;;;;;;;;;1731456;28;20236;-80
2023/08/11 05:06:10;;;;;;;0.00;0.00;;;;;;;;;;1732131;28;20508;-79
2023/08/11 05:07:01;;;;;;;0.00;0.00;;;;;;;;;;1733810;28;20219;-79
2023/08/11 05:07:53;;;;;;;0.00;0.00;;;;;;;;;;1733185;28;20362;-79
2023/08/11 05:08:44;;;;;;;0.00;0.00;;;;;;;;;;1729758;28;20240;-79
2023/08/11 05:09:35;;;;;;;0.00;0.00;;;;;;;;;;1732676;28;20199;-79
2023/08/11 05:10:27;;;;;;;0.00;0.00;;;;;;;;;;1731485;28;20199;-79
2023/08/11 05:11:18;;;;;;;0.00;0.00;;;;;;;;;;1729891;28;20243;-80
2023/08/11 05:12:10;;;;;;;0.00;0.00;;;;;;;;;;1733981;28;20245;-80